sensor_id;sensor_type;location;lat;lon;timestamp;pressure;altitude;pressure_sealevel;temperature;humidity
23805;BME280;12083;52.098;7.582;2022-09-06T00:00:53;101231.09;;;25.60;42.70
23805;BME280;12083;52.098;7.582;2022-09-06T00:03:19;101236.50;;;25.60;42.67
23805;BME280;12083;52.098;7.582;2022-09-06T00:05:44;101244.72;;;25.59;42.77
23805;BME280;12083;52.098;7.582;2022-09-06T00:08:10;101241.25;;;25.57;42.89
23805;BME280;12083;52.098;7.582;2022-09-06T00:10:35;101239.69;;;25.54;42.99
23805;BME280;12083;52.098;7.582;2022-09-06T00:13:04;101238.97;;;25.52;43.24
23805;BME280;12083;52.098;7.582;2022-09-06T00:15:30;101238.16;;;25.50;42.97
23805;BME280;12083;52.098;7.582;2022-09-06T00:18:00;101233.75;;;25.49;42.87
23805;BME280;12083;52.098;7.582;2022-09-06T00:20:30;101224.97;;;25.47;43.20
23805;BME280;12083;52.098;7.582;2022-09-06T00:23:01;101219.94;;;25.43;43.26
23805;BME280;12083;52.098;7.582;2022-09-06T00:25:27;101217.34;;;25.41;43.21
23805;BME280;12083;52.098;7.582;2022-09-06T00:27:59;101205.97;;;25.38;43.76
23805;BME280;12083;52.098;7.582;2022-09-06T00:30:26;101218.56;;;25.37;43.61
23805;BME280;12083;52.098;7.582;2022-09-06T00:32:52;101202.66;;;25.34;43.33
23805;BME280;12083;52.098;7.582;2022-09-06T00:35:19;101206.34;;;25.33;43.69
23805;BME280;12083;52.098;7.582;2022-09-06T00:37:45;101203.78;;;25.32;43.80
23805;BME280;12083;52.098;7.582;2022-09-06T00:40:11;101206.56;;;25.30;43.65
23805;BME280;12083;52.098;7.582;2022-09-06T00:42:37;101204.13;;;25.27;43.79
23805;BME280;12083;52.098;7.582;2022-09-06T00:45:04;101199.84;;;25.25;43.88
23805;BME280;12083;52.098;7.582;2022-09-06T00:47:30;101200.81;;;25.24;43.76
23805;BME280;12083;52.098;7.582;2022-09-06T00:49:58;101191.16;;;25.21;43.89
23805;BME280;12083;52.098;7.582;2022-09-06T00:52:24;101189.69;;;25.17;44.13
23805;BME280;12083;52.098;7.582;2022-09-06T00:54:52;101207.75;;;25.15;44.01
23805;BME280;12083;52.098;7.582;2022-09-06T00:57:18;101204.22;;;25.14;44.36
23805;BME280;12083;52.098;7.582;2022-09-06T00:59:45;101202.53;;;25.13;44.32
23805;BME280;12083;52.098;7.582;2022-09-06T01:02:11;101199.94;;;25.12;44.53
23805;BME280;12083;52.098;7.582;2022-09-06T01:04:39;101202.88;;;25.09;44.48
23805;BME280;12083;52.098;7.582;2022-09-06T01:26:31;101198.19;;;25.00;44.61
23805;BME280;12083;52.098;7.582;2022-09-06T01:29:04;101196.47;;;24.99;44.89
23805;BME280;12083;52.098;7.582;2022-09-06T01:31:38;101194.16;;;24.94;44.76
23805;BME280;12083;52.098;7.582;2022-09-06T01:36:39;101194.34;;;24.91;44.93
23805;BME280;12083;52.098;7.582;2022-09-06T01:39:10;101181.06;;;24.90;45.02
23805;BME280;12083;52.098;7.582;2022-09-06T01:41:40;101189.34;;;24.87;45.02
23805;BME280;12083;52.098;7.582;2022-09-06T01:44:06;101186.66;;;24.87;45.19
23805;BME280;12083;52.098;7.582;2022-09-06T01:52:01;101176.47;;;24.79;45.24
23805;BME280;12083;52.098;7.582;2022-09-06T01:54:53;101171.44;;;24.75;45.44
23805;BME280;12083;52.098;7.582;2022-09-06T02:00:25;101171.66;;;24.72;45.41
23805;BME280;12083;52.098;7.582;2022-09-06T02:05:33;101168.47;;;24.66;45.74
23805;BME280;12083;52.098;7.582;2022-09-06T02:08:09;101166.03;;;24.63;45.80
23805;BME280;12083;52.098;7.582;2022-09-06T02:10:37;101166.22;;;24.60;45.64
23805;BME280;12083;52.098;7.582;2022-09-06T02:13:06;101162.06;;;24.56;45.83
23805;BME280;12083;52.098;7.582;2022-09-06T02:15:36;101176.47;;;24.55;45.84
23805;BME280;12083;52.098;7.582;2022-09-06T02:18:07;101176.69;;;24.52;45.89
23805;BME280;12083;52.098;7.582;2022-09-06T02:20:39;101178.66;;;24.50;46.15
23805;BME280;12083;52.098;7.582;2022-09-06T02:23:06;101182.44;;;24.48;46.26
23805;BME280;12083;52.098;7.582;2022-09-06T02:25:52;101174.56;;;24.45;46.25
23805;BME280;12083;52.098;7.582;2022-09-06T02:28:19;101177.41;;;24.43;46.23
23805;BME280;12083;52.098;7.582;2022-09-06T02:30:48;101183.84;;;24.41;46.28
23805;BME280;12083;52.098;7.582;2022-09-06T02:33:23;101184.69;;;24.41;46.29
23805;BME280;12083;52.098;7.582;2022-09-06T02:35:52;101195.78;;;24.37;46.50
23805;BME280;12083;52.098;7.582;2022-09-06T02:38:23;101208.38;;;24.36;46.56
23805;BME280;12083;52.098;7.582;2022-09-06T02:40:51;101204.19;;;24.32;46.59
23805;BME280;12083;52.098;7.582;2022-09-06T02:43:18;101207.94;;;24.30;46.48
23805;BME280;12083;52.098;7.582;2022-09-06T02:45:44;101213.53;;;24.27;46.81
23805;BME280;12083;52.098;7.582;2022-09-06T02:48:09;101210.13;;;24.25;46.75
23805;BME280;12083;52.098;7.582;2022-09-06T02:50:35;101212.91;;;24.23;46.79
23805;BME280;12083;52.098;7.582;2022-09-06T02:53:06;101204.13;;;24.21;46.92
23805;BME280;12083;52.098;7.582;2022-09-06T02:55:34;101207.78;;;24.20;47.06
23805;BME280;12083;52.098;7.582;2022-09-06T02:58:00;101200.06;;;24.15;47.22
23805;BME280;12083;52.098;7.582;2022-09-06T03:00:26;101202.84;;;24.14;47.23
23805;BME280;12083;52.098;7.582;2022-09-06T03:02:53;101198.31;;;24.14;47.29
23805;BME280;12083;52.098;7.582;2022-09-06T03:05:21;101198.53;;;24.11;47.35
23805;BME280;12083;52.098;7.582;2022-09-06T03:07:47;101193.16;;;24.11;47.39
23805;BME280;12083;52.098;7.582;2022-09-06T03:10:13;101186.28;;;24.07;47.41
23805;BME280;12083;52.098;7.582;2022-09-06T03:12:41;101192.75;;;24.05;47.47
23805;BME280;12083;52.098;7.582;2022-09-06T03:15:07;101184.78;;;24.03;47.45
23805;BME280;12083;52.098;7.582;2022-09-06T03:17:33;101191.25;;;24.01;47.76
23805;BME280;12083;52.098;7.582;2022-09-06T03:19:59;101178.16;;;23.96;47.85
23805;BME280;12083;52.098;7.582;2022-09-06T03:22:25;101172.78;;;23.96;48.03
23805;BME280;12083;52.098;7.582;2022-09-06T03:24:51;101177.53;;;23.93;47.97
23805;BME280;12083;52.098;7.582;2022-09-06T03:27:16;101167.03;;;23.90;48.22
23805;BME280;12083;52.098;7.582;2022-09-06T03:29:42;101170.66;;;23.89;48.31
23805;BME280;12083;52.098;7.582;2022-09-06T03:32:08;101170.03;;;23.85;48.43
23805;BME280;12083;52.098;7.582;2022-09-06T03:34:33;101171.09;;;23.83;48.29
23805;BME280;12083;52.098;7.582;2022-09-06T03:36:59;101167.66;;;23.81;48.43
23805;BME280;12083;52.098;7.582;2022-09-06T03:39:25;101175.00;;;23.79;48.35
23805;BME280;12083;52.098;7.582;2022-09-06T03:41:51;101189.38;;;23.78;48.66
23805;BME280;12083;52.098;7.582;2022-09-06T03:44:16;101184.00;;;23.78;48.60
23805;BME280;12083;52.098;7.582;2022-09-06T03:46:42;101182.28;;;23.77;48.72
23805;BME280;12083;52.098;7.582;2022-09-06T03:49:08;101176.03;;;23.76;48.72
23805;BME280;12083;52.098;7.582;2022-09-06T03:51:34;101172.50;;;23.76;48.78
23805;BME280;12083;52.098;7.582;2022-09-06T03:54:00;101185.91;;;23.76;48.81
23805;BME280;12083;52.098;7.582;2022-09-06T03:56:26;101174.53;;;23.72;48.87
23805;BME280;12083;52.098;7.582;2022-09-06T03:58:52;101179.06;;;23.71;48.94
23805;BME280;12083;52.098;7.582;2022-09-06T04:01:19;101185.50;;;23.69;48.90
23805;BME280;12083;52.098;7.582;2022-09-06T04:03:45;101182.19;;;23.65;49.23
23805;BME280;12083;52.098;7.582;2022-09-06T04:06:11;101174.22;;;23.64;49.37
23805;BME280;12083;52.098;7.582;2022-09-06T04:08:37;101167.19;;;23.63;49.44
23805;BME280;12083;52.098;7.582;2022-09-06T04:11:04;101174.38;;;23.62;49.35
23805;BME280;12083;52.098;7.582;2022-09-06T04:13:30;101163.84;;;23.59;49.41
23805;BME280;12083;52.098;7.582;2022-09-06T05:01:41;101203.25;;;23.07;51.59
23805;BME280;12083;52.098;7.582;2022-09-06T05:04:07;101206.88;;;23.06;52.09
23805;BME280;12083;52.098;7.582;2022-09-06T05:06:33;101204.53;;;23.01;52.09
23805;BME280;12083;52.098;7.582;2022-09-06T05:08:58;101202.81;;;23.00;52.31
23805;BME280;12083;52.098;7.582;2022-09-06T05:11:24;101226.00;;;23.01;52.54
23805;BME280;12083;52.098;7.582;2022-09-06T05:13:49;101235.84;;;23.01;52.68
23805;BME280;12083;52.098;7.582;2022-09-06T05:16:15;101262.72;;;22.99;52.47
23805;BME280;12083;52.098;7.582;2022-09-06T05:18:41;101258.44;;;22.97;52.96
23805;BME280;12083;52.098;7.582;2022-09-06T05:21:07;101246.94;;;22.95;52.88
23805;BME280;12083;52.098;7.582;2022-09-06T05:23:32;101245.25;;;22.94;52.51
23805;BME280;12083;52.098;7.582;2022-09-06T05:25:58;101240.94;;;22.91;52.88
23805;BME280;12083;52.098;7.582;2022-09-06T05:28:24;101235.72;;;22.90;52.67
23805;BME280;12083;52.098;7.582;2022-09-06T05:30:49;101234.72;;;22.91;53.00
23805;BME280;12083;52.098;7.582;2022-09-06T05:33:20;101244.59;;;22.90;52.88
23805;BME280;12083;52.098;7.582;2022-09-06T05:35:46;101252.75;;;22.89;53.03
23805;BME280;12083;52.098;7.582;2022-09-06T05:38:13;101251.78;;;22.90;52.87
23805;BME280;12083;52.098;7.582;2022-09-06T05:40:38;101254.47;;;22.90;53.25
23805;BME280;12083;52.098;7.582;2022-09-06T05:43:04;101257.16;;;22.90;53.57
23805;BME280;12083;52.098;7.582;2022-09-06T05:45:30;101258.97;;;22.89;53.81
23805;BME280;12083;52.098;7.582;2022-09-06T05:47:55;101253.69;;;22.88;53.65
23805;BME280;12083;52.098;7.582;2022-09-06T05:50:21;101251.22;;;22.85;53.99
23805;BME280;12083;52.098;7.582;2022-09-06T05:52:47;101247.97;;;22.79;54.07
23805;BME280;12083;52.098;7.582;2022-09-06T05:55:12;101235.66;;;22.77;54.16
23805;BME280;12083;52.098;7.582;2022-09-06T05:57:38;101252.91;;;22.73;54.50
23805;BME280;12083;52.098;7.582;2022-09-06T06:00:04;101258.59;;;22.67;54.91
23805;BME280;12083;52.098;7.582;2022-09-06T06:02:37;101256.25;;;22.62;54.96
23805;BME280;12083;52.098;7.582;2022-09-06T06:05:05;101262.84;;;22.57;55.51
23805;BME280;12083;52.098;7.582;2022-09-06T06:07:31;101238.09;;;22.53;55.80
23805;BME280;12083;52.098;7.582;2022-09-06T06:09:56;101223.97;;;22.51;56.01
23805;BME280;12083;52.098;7.582;2022-09-06T06:12:22;101225.13;;;22.47;56.52
23805;BME280;12083;52.098;7.582;2022-09-06T06:14:47;101220.81;;;22.45;57.00
23805;BME280;12083;52.098;7.582;2022-09-06T06:17:13;101228.97;;;22.43;56.77
23805;BME280;12083;52.098;7.582;2022-09-06T06:19:39;101210.31;;;22.42;57.23
23805;BME280;12083;52.098;7.582;2022-09-06T06:22:04;101214.59;;;22.44;57.13
23805;BME280;12083;52.098;7.582;2022-09-06T06:24:30;101216.41;;;22.44;57.63
23805;BME280;12083;52.098;7.582;2022-09-06T06:26:56;101219.06;;;22.44;57.97
23805;BME280;12083;52.098;7.582;2022-09-06T06:29:21;101236.00;;;22.44;57.93
23805;BME280;12083;52.098;7.582;2022-09-06T06:31:49;101239.66;;;22.43;58.31
23805;BME280;12083;52.098;7.582;2022-09-06T06:34:14;101251.13;;;22.45;58.26
23805;BME280;12083;52.098;7.582;2022-09-06T06:36:40;101246.53;;;22.47;58.73
23805;BME280;12083;52.098;7.582;2022-09-06T06:39:07;101250.81;;;22.50;58.95
23805;BME280;12083;52.098;7.582;2022-09-06T06:41:33;101249.75;;;22.52;58.62
23805;BME280;12083;52.098;7.582;2022-09-06T06:44:01;101238.09;;;22.53;59.05
23805;BME280;12083;52.098;7.582;2022-09-06T06:46:30;101240.47;;;22.58;58.69
23805;BME280;12083;52.098;7.582;2022-09-06T06:48:56;101249.25;;;22.60;59.28
23805;BME280;12083;52.098;7.582;2022-09-06T06:51:24;101242.75;;;22.64;59.43
23805;BME280;12083;52.098;7.582;2022-09-06T06:53:50;101241.69;;;22.66;59.17
23805;BME280;12083;52.098;7.582;2022-09-06T06:56:17;101245.81;;;22.72;58.95
23805;BME280;12083;52.098;7.582;2022-09-06T06:58:44;101248.41;;;22.73;59.56
23805;BME280;12083;52.098;7.582;2022-09-06T07:01:10;101255.47;;;22.74;59.49
23805;BME280;12083;52.098;7.582;2022-09-06T07:03:38;101252.03;;;22.72;59.27
23805;BME280;12083;52.098;7.582;2022-09-06T07:06:04;101246.66;;;22.72;59.48
23805;BME280;12083;52.098;7.582;2022-09-06T07:08:30;101246.47;;;22.75;59.88
23805;BME280;12083;52.098;7.582;2022-09-06T07:10:55;101244.56;;;22.77;60.06
23805;BME280;12083;52.098;7.582;2022-09-06T07:13:21;101236.41;;;22.79;60.60
23805;BME280;12083;52.098;7.582;2022-09-06T07:15:46;101237.72;;;22.86;60.09
23805;BME280;12083;52.098;7.582;2022-09-06T07:18:16;101246.69;;;23.12;60.78
23805;BME280;12083;52.098;7.582;2022-09-06T07:20:42;101238.53;;;23.65;61.21
23805;BME280;12083;52.098;7.582;2022-09-06T07:23:08;101240.72;;;24.22;60.63
23805;BME280;12083;52.098;7.582;2022-09-06T07:25:34;101235.69;;;24.78;60.00
23805;BME280;12083;52.098;7.582;2022-09-06T07:28:04;101235.69;;;25.25;59.34
23805;BME280;12083;52.098;7.582;2022-09-06T07:30:34;101235.03;;;25.56;58.22
23805;BME280;12083;52.098;7.582;2022-09-06T07:33:01;101234.06;;;25.80;58.00
23805;BME280;12083;52.098;7.582;2022-09-06T07:35:26;101228.81;;;26.00;57.18
23805;BME280;12083;52.098;7.582;2022-09-06T07:37:57;101223.91;;;26.17;57.16
23805;BME280;12083;52.098;7.582;2022-09-06T07:40:24;101224.41;;;26.33;56.48
23805;BME280;12083;52.098;7.582;2022-09-06T07:42:51;101225.69;;;26.49;56.09
23805;BME280;12083;52.098;7.582;2022-09-06T07:45:17;101223.72;;;26.63;55.61
23805;BME280;12083;52.098;7.582;2022-09-06T07:47:43;101219.13;;;26.74;55.46
23805;BME280;12083;52.098;7.582;2022-09-06T07:50:10;101215.56;;;26.85;54.97
23805;BME280;12083;52.098;7.582;2022-09-06T07:52:35;101213.69;;;26.96;54.70
23805;BME280;12083;52.098;7.582;2022-09-06T07:55:01;101222.56;;;27.08;54.13
23805;BME280;12083;52.098;7.582;2022-09-06T07:57:27;101230.88;;;27.16;53.65
23805;BME280;12083;52.098;7.582;2022-09-06T07:59:52;101235.75;;;27.22;53.74
23805;BME280;12083;52.098;7.582;2022-09-06T08:02:18;101234.50;;;27.26;53.31
23805;BME280;12083;52.098;7.582;2022-09-06T08:04:44;101236.94;;;27.29;53.02
23805;BME280;12083;52.098;7.582;2022-09-06T08:07:09;101237.81;;;27.30;52.72
23805;BME280;12083;52.098;7.582;2022-09-06T08:09:35;101233.22;;;27.30;52.54
23805;BME280;12083;52.098;7.582;2022-09-06T08:12:02;101233.22;;;27.30;52.24
23805;BME280;12083;52.098;7.582;2022-09-06T08:14:34;101238.63;;;27.30;51.81
23805;BME280;12083;52.098;7.582;2022-09-06T08:17:00;101231.28;;;27.32;51.93
23805;BME280;12083;52.098;7.582;2022-09-06T08:19:26;101234.44;;;27.37;51.97
23805;BME280;12083;52.098;7.582;2022-09-06T08:21:53;101234.88;;;27.42;51.67
23805;BME280;12083;52.098;7.582;2022-09-06T08:24:19;101231.09;;;27.45;51.18
23805;BME280;12083;52.098;7.582;2022-09-06T08:26:45;101232.56;;;27.49;50.78
23805;BME280;12083;52.098;7.582;2022-09-06T08:29:11;101227.28;;;27.48;50.67
23805;BME280;12083;52.098;7.582;2022-09-06T08:31:41;101226.31;;;27.49;50.34
23805;BME280;12083;52.098;7.582;2022-09-06T08:34:07;101228.72;;;27.52;50.58
23805;BME280;12083;52.098;7.582;2022-09-06T08:36:34;101234.59;;;27.57;50.46
23805;BME280;12083;52.098;7.582;2022-09-06T08:39:09;101237.59;;;27.63;49.95
23805;BME280;12083;52.098;7.582;2022-09-06T08:42:00;101219.00;;;27.70;50.00
23805;BME280;12083;52.098;7.582;2022-09-06T08:44:43;101225.59;;;27.77;49.88
23805;BME280;12083;52.098;7.582;2022-09-06T08:47:12;101232.88;;;27.86;49.57
23805;BME280;12083;52.098;7.582;2022-09-06T08:49:59;101230.66;;;27.91;49.11
23805;BME280;12083;52.098;7.582;2022-09-06T09:00:19;101225.72;;;28.06;48.72
23805;BME280;12083;52.098;7.582;2022-09-06T09:02:48;101226.06;;;28.12;48.32
23805;BME280;12083;52.098;7.582;2022-09-06T09:05:26;101226.97;;;28.22;48.28
23805;BME280;12083;52.098;7.582;2022-09-06T09:10:46;101218.44;;;28.36;47.58
23805;BME280;12083;52.098;7.582;2022-09-06T09:13:27;101219.59;;;28.44;47.60
23805;BME280;12083;52.098;7.582;2022-09-06T09:15:55;101219.88;;;28.50;47.52
23805;BME280;12083;52.098;7.582;2022-09-06T09:18:24;101215.22;;;28.52;47.29
23805;BME280;12083;52.098;7.582;2022-09-06T09:20:51;101212.09;;;28.57;46.98
23805;BME280;12083;52.098;7.582;2022-09-06T09:23:17;101213.09;;;28.65;46.86
23805;BME280;12083;52.098;7.582;2022-09-06T09:25:43;101211.69;;;28.71;46.42
23805;BME280;12083;52.098;7.582;2022-09-06T09:28:18;101200.59;;;28.74;46.37
23805;BME280;12083;52.098;7.582;2022-09-06T09:30:54;101195.19;;;28.83;46.17
23805;BME280;12083;52.098;7.582;2022-09-06T09:33:22;101196.19;;;28.92;45.85
23805;BME280;12083;52.098;7.582;2022-09-06T09:35:49;101196.31;;;29.00;45.45
23805;BME280;12083;52.098;7.582;2022-09-06T09:38:25;101195.75;;;29.06;45.28
23805;BME280;12083;52.098;7.582;2022-09-06T09:41:00;101203.00;;;29.15;45.18
23805;BME280;12083;52.098;7.582;2022-09-06T09:43:37;101194.44;;;29.20;44.81
23805;BME280;12083;52.098;7.582;2022-09-06T09:49:10;101192.03;;;29.26;44.14
23805;BME280;12083;52.098;7.582;2022-09-06T09:54:13;101184.56;;;29.48;44.15
23805;BME280;12083;52.098;7.582;2022-09-06T09:56:46;101186.41;;;29.57;43.82
23805;BME280;12083;52.098;7.582;2022-09-06T09:59:23;101177.38;;;29.66;43.21
23805;BME280;12083;52.098;7.582;2022-09-06T10:01:55;101179.38;;;29.73;43.14
23805;BME280;12083;52.098;7.582;2022-09-06T10:04:29;101188.44;;;29.82;42.96
23805;BME280;12083;52.098;7.582;2022-09-06T10:09:36;101173.59;;;29.96;42.27
23805;BME280;12083;52.098;7.582;2022-09-06T10:12:03;101185.84;;;30.00;42.33
23805;BME280;12083;52.098;7.582;2022-09-06T10:14:43;101178.94;;;30.05;42.08
23805;BME280;12083;52.098;7.582;2022-09-06T10:17:27;101188.47;;;30.09;41.32
23805;BME280;12083;52.098;7.582;2022-09-06T10:19:54;101176.03;;;30.16;41.51
23805;BME280;12083;52.098;7.582;2022-09-06T10:22:31;101174.44;;;30.23;41.13
23805;BME280;12083;52.098;7.582;2022-09-06T10:28:27;101167.88;;;30.44;41.13
23805;BME280;12083;52.098;7.582;2022-09-06T10:31:07;101152.41;;;30.54;40.94
23805;BME280;12083;52.098;7.582;2022-09-06T10:36:18;101161.66;;;30.87;40.08
23805;BME280;12083;52.098;7.582;2022-09-06T10:38:53;101158.13;;;31.04;39.65
23805;BME280;12083;52.098;7.582;2022-09-06T10:46:39;101153.34;;;31.83;38.57
23805;BME280;12083;52.098;7.582;2022-09-06T10:49:12;101151.72;;;32.06;37.44
23805;BME280;12083;52.098;7.582;2022-09-06T10:51:42;101152.34;;;32.34;37.63
23805;BME280;12083;52.098;7.582;2022-09-06T10:54:16;101146.81;;;32.68;37.07
23805;BME280;12083;52.098;7.582;2022-09-06T10:56:55;101146.81;;;33.09;36.48
23805;BME280;12083;52.098;7.582;2022-09-06T10:59:31;101150.53;;;33.40;35.63
23805;BME280;12083;52.098;7.582;2022-09-06T11:05:21;101137.47;;;34.44;34.46
23805;BME280;12083;52.098;7.582;2022-09-06T11:07:53;101139.84;;;35.07;33.70
23805;BME280;12083;52.098;7.582;2022-09-06T11:10:28;101130.63;;;35.75;32.91
23805;BME280;12083;52.098;7.582;2022-09-06T11:13:17;101142.84;;;36.44;31.69
23805;BME280;12083;52.098;7.582;2022-09-06T11:15:51;101138.78;;;37.04;30.70
23805;BME280;12083;52.098;7.582;2022-09-06T11:18:27;101134.00;;;37.75;30.36
23805;BME280;12083;52.098;7.582;2022-09-06T11:21:25;101134.50;;;38.52;29.67
23805;BME280;12083;52.098;7.582;2022-09-06T11:29:43;101135.75;;;41.13;27.18
23805;BME280;12083;52.098;7.582;2022-09-06T11:32:41;101130.50;;;41.66;26.37
23805;BME280;12083;52.098;7.582;2022-09-06T11:35:25;101126.97;;;42.13;26.10
23805;BME280;12083;52.098;7.582;2022-09-06T11:40:44;101126.00;;;42.79;25.10
23805;BME280;12083;52.098;7.582;2022-09-06T11:43:17;101132.38;;;43.26;24.82
23805;BME280;12083;52.098;7.582;2022-09-06T11:45:50;101123.19;;;43.60;24.11
23805;BME280;12083;52.098;7.582;2022-09-06T11:53:27;101109.81;;;43.69;23.61
23805;BME280;12083;52.098;7.582;2022-09-06T12:06:20;101098.22;;;42.97;23.18
23805;BME280;12083;52.098;7.582;2022-09-06T12:08:47;101098.34;;;42.79;22.97
23805;BME280;12083;52.098;7.582;2022-09-06T12:19:43;101099.72;;;42.17;23.39
23805;BME280;12083;52.098;7.582;2022-09-06T12:25:05;101081.59;;;41.73;23.72
23805;BME280;12083;52.098;7.582;2022-09-06T12:27:38;101092.50;;;41.50;23.65
23805;BME280;12083;52.098;7.582;2022-09-06T12:30:38;101090.69;;;41.37;23.60
23805;BME280;12083;52.098;7.582;2022-09-06T12:33:10;101080.34;;;41.14;23.81
23805;BME280;12083;52.098;7.582;2022-09-06T12:35:38;101068.50;;;40.89;24.00
23805;BME280;12083;52.098;7.582;2022-09-06T12:38:12;101075.66;;;40.72;24.01
23805;BME280;12083;52.098;7.582;2022-09-06T12:40:42;101069.94;;;40.42;24.25
23805;BME280;12083;52.098;7.582;2022-09-06T12:43:10;101069.69;;;40.12;23.94
23805;BME280;12083;52.098;7.582;2022-09-06T12:45:45;101071.72;;;39.92;24.54
23805;BME280;12083;52.098;7.582;2022-09-06T12:48:27;101070.34;;;39.63;24.48
23805;BME280;12083;52.098;7.582;2022-09-06T12:51:22;101067.09;;;39.35;24.83
23805;BME280;12083;52.098;7.582;2022-09-06T12:53:56;101063.53;;;39.08;25.09
23805;BME280;12083;52.098;7.582;2022-09-06T12:56:24;101058.47;;;38.92;25.25
23805;BME280;12083;52.098;7.582;2022-09-06T12:58:51;101061.22;;;38.66;25.51
23805;BME280;12083;52.098;7.582;2022-09-06T13:01:28;101059.06;;;38.35;25.51
23805;BME280;12083;52.098;7.582;2022-09-06T13:04:06;101061.13;;;38.13;25.55
23805;BME280;12083;52.098;7.582;2022-09-06T13:06:38;101050.28;;;37.92;25.73
23805;BME280;12083;52.098;7.582;2022-09-06T13:09:09;101050.25;;;37.79;26.05
23805;BME280;12083;52.098;7.582;2022-09-06T13:11:37;101048.72;;;37.69;25.81
23805;BME280;12083;52.098;7.582;2022-09-06T13:14:16;101046.81;;;37.57;25.91
23805;BME280;12083;52.098;7.582;2022-09-06T13:16:45;101048.41;;;37.45;26.18
23805;BME280;12083;52.098;7.582;2022-09-06T13:19:14;101041.38;;;37.29;26.17
23805;BME280;12083;52.098;7.582;2022-09-06T13:21:42;101032.41;;;37.07;26.20
23805;BME280;12083;52.098;7.582;2022-09-06T13:24:42;101034.06;;;36.81;26.22
23805;BME280;12083;52.098;7.582;2022-09-06T13:29:56;101023.81;;;36.19;26.59
23805;BME280;12083;52.098;7.582;2022-09-06T13:32:23;101034.88;;;35.90;26.85
23805;BME280;12083;52.098;7.582;2022-09-06T13:34:50;101041.91;;;35.63;27.47
23805;BME280;12083;52.098;7.582;2022-09-06T13:37:26;101030.31;;;35.46;27.01
23805;BME280;12083;52.098;7.582;2022-09-06T13:39:53;101027.59;;;35.31;27.48
23805;BME280;12083;52.098;7.582;2022-09-06T13:42:33;101023.09;;;35.24;27.84
23805;BME280;12083;52.098;7.582;2022-09-06T13:45:24;101028.00;;;35.14;27.42
23805;BME280;12083;52.098;7.582;2022-09-06T13:47:51;101031.19;;;35.03;27.63
23805;BME280;12083;52.098;7.582;2022-09-06T13:50:18;101020.34;;;34.95;27.62
23805;BME280;12083;52.098;7.582;2022-09-06T13:52:44;101022.47;;;34.84;28.05
23805;BME280;12083;52.098;7.582;2022-09-06T13:55:15;101018.97;;;34.76;28.01
23805;BME280;12083;52.098;7.582;2022-09-06T13:57:41;101011.56;;;34.70;28.15
23805;BME280;12083;52.098;7.582;2022-09-06T14:00:08;101012.09;;;34.65;28.13
23805;BME280;12083;52.098;7.582;2022-09-06T14:02:34;101010.75;;;34.61;28.39
23805;BME280;12083;52.098;7.582;2022-09-06T14:05:00;101014.03;;;34.57;28.15
23805;BME280;12083;52.098;7.582;2022-09-06T14:07:25;101005.09;;;34.48;28.24
23805;BME280;12083;52.098;7.582;2022-09-06T14:09:51;100995.09;;;34.40;28.45
23805;BME280;12083;52.098;7.582;2022-09-06T14:12:16;101007.59;;;34.35;28.10
23805;BME280;12083;52.098;7.582;2022-09-06T14:14:42;101001.72;;;34.23;28.52
23805;BME280;12083;52.098;7.582;2022-09-06T14:17:09;101006.06;;;34.10;28.43
23805;BME280;12083;52.098;7.582;2022-09-06T14:19:34;101009.56;;;33.95;28.60
23805;BME280;12083;52.098;7.582;2022-09-06T14:22:00;101007.25;;;33.84;28.39
23805;BME280;12083;52.098;7.582;2022-09-06T14:24:26;101005.81;;;33.74;28.69
23805;BME280;12083;52.098;7.582;2022-09-06T14:26:52;101002.28;;;33.65;28.69
23805;BME280;12083;52.098;7.582;2022-09-06T14:29:17;101006.56;;;33.60;28.56
23805;BME280;12083;52.098;7.582;2022-09-06T14:31:43;101007.44;;;33.52;28.62
23805;BME280;12083;52.098;7.582;2022-09-06T14:34:09;100999.59;;;33.49;28.84
23805;BME280;12083;52.098;7.582;2022-09-06T14:36:34;100995.53;;;33.45;28.83
23805;BME280;12083;52.098;7.582;2022-09-06T14:39:00;100993.84;;;33.44;29.06
23805;BME280;12083;52.098;7.582;2022-09-06T14:41:27;100997.78;;;33.41;28.83
23805;BME280;12083;52.098;7.582;2022-09-06T14:43:55;100996.75;;;33.42;29.05
23805;BME280;12083;52.098;7.582;2022-09-06T14:46:22;100994.03;;;33.42;28.95
23805;BME280;12083;52.098;7.582;2022-09-06T14:48:55;100993.84;;;33.44;28.67
23805;BME280;12083;52.098;7.582;2022-09-06T14:51:21;100985.69;;;33.44;28.83
23805;BME280;12083;52.098;7.582;2022-09-06T14:53:50;100989.44;;;33.43;28.77
23805;BME280;12083;52.098;7.582;2022-09-06T14:56:17;100986.38;;;33.38;28.83
23805;BME280;12083;52.098;7.582;2022-09-06T14:58:43;100988.78;;;33.33;28.69
23805;BME280;12083;52.098;7.582;2022-09-06T15:03:34;100985.28;;;33.24;28.96
23805;BME280;12083;52.098;7.582;2022-09-06T15:06:00;100976.59;;;33.21;28.75
23805;BME280;12083;52.098;7.582;2022-09-06T15:08:27;100975.91;;;33.19;28.88
23805;BME280;12083;52.098;7.582;2022-09-06T15:10:53;100977.78;;;33.18;29.27
23805;BME280;12083;52.098;7.582;2022-09-06T15:13:19;100977.28;;;33.15;29.14
23805;BME280;12083;52.098;7.582;2022-09-06T15:15:45;100972.53;;;33.09;29.03
23805;BME280;12083;52.098;7.582;2022-09-06T15:18:11;100966.75;;;33.03;29.04
23805;BME280;12083;52.098;7.582;2022-09-06T15:20:36;100963.53;;;33.00;29.11
23805;BME280;12083;52.098;7.582;2022-09-06T15:23:03;100962.88;;;32.98;29.14
23805;BME280;12083;52.098;7.582;2022-09-06T15:25:30;100959.47;;;32.96;29.08
23805;BME280;12083;52.098;7.582;2022-09-06T15:27:57;100957.97;;;32.93;29.11
23805;BME280;12083;52.098;7.582;2022-09-06T15:30:22;100956.41;;;32.91;29.31
23805;BME280;12083;52.098;7.582;2022-09-06T15:32:48;100954.91;;;32.88;29.35